CFB Trenton
CYTR : now visible

Airfield :











YOU CAN JOIN US ON...

 
LOGIN :

Register | Disclaimer

   EN    FR    IT 

 









Legend :    VFR   Marginal VFR   IFR   Intensive IFR   Very Intensive IFR
Visi :
Ceiling :
>= 8 km
>= 3000ft
5 to 8 km
1000 to 3000 ft
1500m to 5 km
500 to 1000 ft
800 to 1500m
200 to 500 ft
< 800m
< 200 ft
Symbols :   Thunderstorms  Fog  Heavy snow  Heavy precipitations  Wind > 20 kt







- Airport Elevation : 283 ft
- IATA code : YTR


CYTR - CFB Trenton

CURRENT METAR :
  • 191400Z 21008KT 12SM FEW043 FEW120 BKN250 26/22 A2979 RMK CF1AC2CI6 CUFRA TR SLP086

EXPIRED METARs :
  • 191300Z 22009KT 12SM SCT120 OVC250 25/22 A2979 RMK AC3CI5 SLP087
  • 191200Z 22008KT 12SM FEW250 25/22 A2978 RMK CI2 SLP084

TAF TAF CYTR
Valid from the 19 at 12:00 until the 20 at 12:00 UTC


191130Z 1912/2012 22008KT P6SM SCT030 SCT250
FM191500 24010KT P6SM SCT030 SCT250
TEMPO 1915/1918 BKN030 BKN250
FM191800 22012KT P6SM SCT020 SCT100
TEMPO 1918/2003 P6SM -SHRA BKN020 BKN100
PROB30 1918/2003 VRB15G25KT 1SM TSRA BR BKN020 OVC030CB
FM200300 26005KT P6SM BKN025
BECMG 2006/2008 VRB03KT RMK NXT FCST BY 191800Z
CZYZ FIR / North America



MET'MAP, your aeronautical weather chart ! - Copyright ORBIFLY December 2007 - Disclaimer

ORBIFLY MET'MAP TEAM :

Programming & Development : Alexandra Zaïnal
Concept & Development : Baudouin d'Aumeries
Co-Development & Prog : Marc-Olivier Méhu
Technical & hardware support : Manuel Goepfert

Contact : metmap@orbifly.com




SOURCES & CREDITS :

   NOAA       Earth
Advisory